createdAt,value
2022-07-30T00:00:24.968Z,14.36
2022-07-30T00:02:53.831Z,14.27
2022-07-30T00:05:20.897Z,14.22
2022-07-30T00:07:48.287Z,14.22
2022-07-30T00:10:15.245Z,14.22
2022-07-30T00:12:42.060Z,14.14
2022-07-30T00:15:09.663Z,14.10
2022-07-30T00:17:36.548Z,14.11
2022-07-30T00:20:06.191Z,14.17
2022-07-30T00:22:33.146Z,14.25
2022-07-30T00:24:59.978Z,14.29
2022-07-30T00:27:27.218Z,14.47
2022-07-30T00:29:53.979Z,14.50
2022-07-30T00:32:20.832Z,14.49
2022-07-30T00:34:47.674Z,14.45
2022-07-30T00:37:15.919Z,14.38
2022-07-30T00:39:43.153Z,14.34
2022-07-30T00:42:10.162Z,14.29
2022-07-30T00:44:37.114Z,14.22
2022-07-30T00:47:07.931Z,14.18
2022-07-30T00:49:34.774Z,14.18
2022-07-30T00:52:01.531Z,14.20
2022-07-30T00:54:30.848Z,14.19
2022-07-30T00:56:57.729Z,14.14
2022-07-30T00:59:24.862Z,14.23
2022-07-30T01:01:51.774Z,14.20
2022-07-30T01:04:18.716Z,14.19
2022-07-30T01:06:45.591Z,14.20
2022-07-30T01:09:12.439Z,14.22
2022-07-30T01:11:42.491Z,14.19
2022-07-30T01:14:10.038Z,14.14
2022-07-30T01:16:39.104Z,14.12
2022-07-30T01:19:30.308Z,14.00
2022-07-30T01:22:07.212Z,14.00
2022-07-30T01:24:39.860Z,13.95
2022-07-30T01:27:08.720Z,13.86
2022-07-30T01:29:37.922Z,13.82
2022-07-30T01:32:07.825Z,13.84
2022-07-30T01:34:37.152Z,13.90
2022-07-30T01:37:08.579Z,13.90
2022-07-30T01:39:37.228Z,13.89
2022-07-30T01:42:07.497Z,13.91
2022-07-30T01:44:38.073Z,13.87
2022-07-30T01:47:06.528Z,13.82
2022-07-30T01:49:36.687Z,13.83
2022-07-30T01:52:05.368Z,13.83
2022-07-30T01:54:33.755Z,13.78
2022-07-30T01:57:02.911Z,13.65
2022-07-30T01:59:31.808Z,13.48
2022-07-30T02:02:00.648Z,13.41
2022-07-30T02:04:27.797Z,13.40
2022-07-30T02:07:01.885Z,13.36
2022-07-30T02:09:33.859Z,13.29
2022-07-30T02:12:21.224Z,13.38
2022-07-30T02:14:52.524Z,13.41
2022-07-30T02:17:26.610Z,13.43
2022-07-30T02:19:59.112Z,13.50
2022-07-30T02:22:33.389Z,13.53
2022-07-30T02:25:01.702Z,13.57
2022-07-30T02:27:33.588Z,13.61
2022-07-30T02:30:03.685Z,13.68
2022-07-30T02:32:34.954Z,13.68
2022-07-30T02:35:10.461Z,13.66
2022-07-30T02:37:43.307Z,13.63
2022-07-30T02:40:15.773Z,13.56
2022-07-30T02:42:45.573Z,13.51
2022-07-30T02:45:17.885Z,13.44
2022-07-30T02:47:48.996Z,13.43
2022-07-30T02:50:17.897Z,13.38
2022-07-30T02:52:45.330Z,13.38
2022-07-30T02:55:13.175Z,13.43
2022-07-30T02:57:43.343Z,13.38
2022-07-30T03:00:12.443Z,13.29
2022-07-30T03:02:43.608Z,13.23
2022-07-30T03:05:14.904Z,13.18
2022-07-30T03:07:42.865Z,13.18
2022-07-30T03:10:11.877Z,13.19
2022-07-30T03:12:40.594Z,13.23
2022-07-30T03:15:08.445Z,13.17
2022-07-30T03:17:45.716Z,13.11
2022-07-30T03:20:18.588Z,13.07
2022-07-30T03:22:50.951Z,13.06
2022-07-30T03:25:25.954Z,12.91
2022-07-30T03:27:57.568Z,12.84
2022-07-30T03:30:25.763Z,12.90
2022-07-30T03:32:55.619Z,12.91
2022-07-30T03:35:30.430Z,12.87
2022-07-30T03:38:00.145Z,12.89
2022-07-30T03:40:29.049Z,12.84
2022-07-30T03:42:56.448Z,12.81
2022-07-30T03:45:25.321Z,12.80
2022-07-30T03:47:57.841Z,12.78
2022-07-30T03:50:27.193Z,12.80
2022-07-30T03:52:54.202Z,12.86
2022-07-30T03:55:22.027Z,12.86
2022-07-30T03:57:49.260Z,12.86
2022-07-30T04:00:18.304Z,12.90
2022-07-30T04:02:50.466Z,12.85
2022-07-30T04:05:41.134Z,12.82
2022-07-30T04:08:08.512Z,12.80
2022-07-30T04:10:35.740Z,12.75
2022-07-30T04:13:21.126Z,12.70
2022-07-30T04:16:05.923Z,12.70
2022-07-30T04:18:47.695Z,12.68
2022-07-30T04:21:18.731Z,12.69
2022-07-30T04:24:04.840Z,12.74
2022-07-30T04:26:34.686Z,12.74
2022-07-30T04:29:02.654Z,12.77
2022-07-30T04:31:37.461Z,12.71
2022-07-30T04:34:28.065Z,12.73
2022-07-30T04:36:56.448Z,12.77
2022-07-30T04:39:23.471Z,12.77
2022-07-30T04:41:50.610Z,12.83
2022-07-30T04:44:35.104Z,12.84
2022-07-30T04:47:34.281Z,12.87
2022-07-30T04:50:23.102Z,12.97
2022-07-30T04:52:53.735Z,13.01
2022-07-30T04:55:26.733Z,13.06
2022-07-30T04:57:55.064Z,13.10
2022-07-30T05:00:22.359Z,13.16
2022-07-30T05:02:52.915Z,13.19
2022-07-30T05:05:21.885Z,13.26
2022-07-30T05:07:49.348Z,13.30
2022-07-30T05:10:19.876Z,13.38
2022-07-30T05:12:47.088Z,13.35
2022-07-30T05:15:16.540Z,13.50
2022-07-30T05:17:45.209Z,13.57
2022-07-30T05:20:13.257Z,13.71
2022-07-30T05:23:15.296Z,13.85
2022-07-30T05:25:48.877Z,13.98
2022-07-30T05:28:27.734Z,14.21
2022-07-30T05:30:56.322Z,14.35
2022-07-30T05:33:40.929Z,14.48
2022-07-30T05:36:11.618Z,14.55
2022-07-30T05:38:39.631Z,14.68
2022-07-30T05:41:32.792Z,14.77
2022-07-30T05:44:24.324Z,14.92
2022-07-30T05:46:52.282Z,15.00
2022-07-30T05:49:19.832Z,15.10
2022-07-30T05:51:46.899Z,15.25
2022-07-30T05:54:14.212Z,15.37
2022-07-30T05:57:01.174Z,15.42
2022-07-30T05:59:47.562Z,15.51
2022-07-30T06:02:24.733Z,15.59
2022-07-30T06:05:10.397Z,15.66
2022-07-30T06:07:37.292Z,15.77
2022-07-30T06:10:06.618Z,15.89
2022-07-30T06:12:35.198Z,16.01
2022-07-30T06:15:02.838Z,16.12
2022-07-30T06:17:41.304Z,16.17
2022-07-30T06:20:21.590Z,16.34
2022-07-30T06:23:12.319Z,16.59
2022-07-30T06:25:59.379Z,16.75
2022-07-30T06:28:37.472Z,16.77
2022-07-30T06:31:10.087Z,16.76
2022-07-30T06:33:37.973Z,16.76
2022-07-30T06:36:05.329Z,16.75
2022-07-30T06:38:41.059Z,16.80
2022-07-30T06:41:12.837Z,16.80
2022-07-30T06:43:52.843Z,16.86
2022-07-30T06:46:38.118Z,16.89
2022-07-30T06:49:05.157Z,16.93
2022-07-30T06:51:32.906Z,16.93
2022-07-30T06:54:00.553Z,16.99
2022-07-30T06:56:36.533Z,17.06
2022-07-30T06:59:07.547Z,17.19
2022-07-30T07:01:54.754Z,17.62
2022-07-30T07:04:23.298Z,18.04
2022-07-30T07:06:50.300Z,18.39
2022-07-30T07:09:26.048Z,18.63
2022-07-30T07:12:14.369Z,18.16
2022-07-30T07:14:45.200Z,17.77
2022-07-30T07:17:13.051Z,17.73
2022-07-30T07:20:00.020Z,17.55
2022-07-30T07:22:32.592Z,17.70
2022-07-30T07:24:59.379Z,17.82
2022-07-30T07:27:30.058Z,17.91
2022-07-30T07:30:05.983Z,18.12
2022-07-30T07:32:36.771Z,18.33
2022-07-30T07:35:04.856Z,18.40
2022-07-30T07:37:34.193Z,18.46
2022-07-30T07:40:01.193Z,18.47
2022-07-30T07:42:31.344Z,18.49
2022-07-30T07:44:58.410Z,18.61
2022-07-30T07:47:26.742Z,18.68
2022-07-30T07:50:08.342Z,18.83
2022-07-30T07:52:35.615Z,19.20
2022-07-30T07:55:02.904Z,19.59
2022-07-30T07:57:31.891Z,20.34
2022-07-30T08:00:00.466Z,21.04
2022-07-30T08:02:32.594Z,21.62
2022-07-30T08:05:05.933Z,22.51
2022-07-30T08:07:50.821Z,22.02
2022-07-30T08:10:36.443Z,22.87
2022-07-30T08:13:52.507Z,22.57
2022-07-30T08:16:30.520Z,22.65
2022-07-30T08:19:21.358Z,24.03
2022-07-30T08:22:12.139Z,23.94
2022-07-30T08:24:40.509Z,24.21
2022-07-30T08:27:07.356Z,24.06
2022-07-30T08:29:34.514Z,24.66
2022-07-30T08:32:02.395Z,25.04
2022-07-30T08:34:33.661Z,24.41
2022-07-30T08:37:03.128Z,24.96
2022-07-30T08:39:30.042Z,25.28
2022-07-30T08:41:58.444Z,25.47
2022-07-30T08:44:26.444Z,25.82
2022-07-30T08:46:56.357Z,25.09
2022-07-30T08:49:54.041Z,24.87
2022-07-30T08:52:28.384Z,25.94
2022-07-30T08:54:59.992Z,25.26
2022-07-30T08:57:30.112Z,24.22
2022-07-30T09:00:00.667Z,25.96
2022-07-30T09:02:31.350Z,25.72
2022-07-30T09:05:04.679Z,25.82
2022-07-30T09:07:32.638Z,26.71
2022-07-30T09:10:00.875Z,27.17
2022-07-30T09:12:33.848Z,26.48
2022-07-30T09:15:04.068Z,26.86
2022-07-30T09:17:47.648Z,26.24
2022-07-30T09:20:16.355Z,26.59
2022-07-30T09:22:46.277Z,27.43
2022-07-30T09:25:43.943Z,26.98
2022-07-30T09:28:31.399Z,27.11
2022-07-30T09:31:17.541Z,27.87
2022-07-30T09:34:02.728Z,27.16
2022-07-30T09:36:49.588Z,27.48
2022-07-30T09:39:33.229Z,27.71
2022-07-30T09:42:20.347Z,27.54
2022-07-30T09:44:48.161Z,27.45
2022-07-30T09:47:30.949Z,27.39
2022-07-30T09:50:07.510Z,27.86
2022-07-30T09:52:43.974Z,28.33
2022-07-30T09:55:29.829Z,28.43
2022-07-30T09:57:59.382Z,28.11
2022-07-30T10:00:30.444Z,28.77
2022-07-30T10:03:21.966Z,28.32
2022-07-30T10:06:19.333Z,28.78
2022-07-30T10:08:51.346Z,29.62
2022-07-30T10:11:23.648Z,28.20
2022-07-30T10:13:57.128Z,29.68
2022-07-30T10:16:26.302Z,28.45
2022-07-30T10:18:57.502Z,28.58
2022-07-30T10:21:43.360Z,29.03
2022-07-30T10:24:27.609Z,29.96
2022-07-30T10:27:20.741Z,28.62
2022-07-30T10:30:13.866Z,28.75
2022-07-30T10:32:42.245Z,28.54
2022-07-30T10:35:10.162Z,29.03
2022-07-30T10:37:40.708Z,29.08
2022-07-30T10:40:19.765Z,29.35
2022-07-30T10:43:17.277Z,29.54
2022-07-30T10:45:50.285Z,28.93
2022-07-30T10:48:19.560Z,29.37
2022-07-30T10:50:52.253Z,29.90
2022-07-30T10:53:39.578Z,29.41
2022-07-30T10:56:18.159Z,29.53
2022-07-30T10:59:04.844Z,29.85
2022-07-30T11:02:08.833Z,29.81
2022-07-30T11:04:36.092Z,29.41
2022-07-30T11:07:30.131Z,28.70
2022-07-30T11:10:09.228Z,29.46
2022-07-30T11:12:55.537Z,29.42
2022-07-30T11:15:22.884Z,28.84
2022-07-30T11:18:11.297Z,28.77
2022-07-30T11:20:40.765Z,27.41
2022-07-30T11:23:35.407Z,27.85
2022-07-30T11:26:02.733Z,28.78
2022-07-30T11:28:37.094Z,28.93
2022-07-30T11:31:24.349Z,28.65
2022-07-30T11:34:26.189Z,29.31
2022-07-30T11:37:18.373Z,29.28
2022-07-30T11:40:09.644Z,28.33
2022-07-30T11:42:38.651Z,29.32
2022-07-30T11:45:29.421Z,29.89
2022-07-30T11:47:59.903Z,29.49
2022-07-30T11:50:28.689Z,28.87
2022-07-30T11:52:56.496Z,28.69
2022-07-30T11:55:25.500Z,29.54
2022-07-30T11:57:52.590Z,28.65
2022-07-30T12:00:19.716Z,29.21
2022-07-30T12:05:26.052Z,29.77
2022-07-30T12:07:57.323Z,30.03
2022-07-30T12:10:26.941Z,28.98
2022-07-30T12:13:07.993Z,28.94
2022-07-30T12:15:37.149Z,28.55
2022-07-30T12:18:25.223Z,28.40
2022-07-30T12:20:57.677Z,28.50
2022-07-30T12:23:27.687Z,29.16
2022-07-30T12:25:55.078Z,29.54
2022-07-30T12:28:23.324Z,29.85
2022-07-30T12:30:51.475Z,29.68
2022-07-30T12:33:20.714Z,28.88
2022-07-30T12:35:49.646Z,28.92
2022-07-30T12:38:17.744Z,28.01
2022-07-30T12:40:56.563Z,27.17
2022-07-30T12:43:44.005Z,26.22
2022-07-30T12:46:14.893Z,25.76
2022-07-30T12:48:58.018Z,25.39
2022-07-30T12:51:30.127Z,24.88
2022-07-30T12:53:57.106Z,24.48
2022-07-30T12:56:25.278Z,24.72
2022-07-30T12:58:52.975Z,24.93
2022-07-30T13:01:19.769Z,25.74
2022-07-30T13:03:46.684Z,25.94
2022-07-30T13:06:17.132Z,26.43
2022-07-30T13:08:52.629Z,27.27
2022-07-30T13:11:20.915Z,27.81
2022-07-30T13:13:48.272Z,27.22
2022-07-30T13:16:15.324Z,26.32
2022-07-30T13:18:42.223Z,26.14
2022-07-30T13:21:11.371Z,25.71
2022-07-30T13:23:41.577Z,24.92
2022-07-30T13:26:09.369Z,24.00
2022-07-30T13:28:36.523Z,23.69
2022-07-30T13:31:03.890Z,23.51
2022-07-30T13:33:30.888Z,23.06
2022-07-30T13:35:57.712Z,23.00
2022-07-30T13:38:24.523Z,22.99
2022-07-30T13:40:53.065Z,22.86
2022-07-30T13:43:20.220Z,22.64
2022-07-30T13:45:47.284Z,22.81
2022-07-30T13:48:14.486Z,23.01
2022-07-30T13:50:41.658Z,23.56
2022-07-30T13:53:08.997Z,23.77
2022-07-30T13:55:36.872Z,23.96
2022-07-30T13:58:06.962Z,24.38
2022-07-30T14:00:36.760Z,24.20
2022-07-30T14:03:05.664Z,24.69
2022-07-30T14:05:36.001Z,24.92
2022-07-30T14:08:11.130Z,25.21
2022-07-30T14:10:39.871Z,25.81
2022-07-30T14:13:10.408Z,26.10
2022-07-30T14:15:43.896Z,26.82
2022-07-30T14:18:10.784Z,26.80
2022-07-30T14:20:37.736Z,25.88
2022-07-30T14:23:04.829Z,25.22
2022-07-30T14:25:31.838Z,25.36
2022-07-30T14:27:58.696Z,25.23
2022-07-30T14:30:26.860Z,25.45
2022-07-30T14:32:59.196Z,25.26
2022-07-30T14:35:26.505Z,25.51
2022-07-30T14:37:53.204Z,25.19
2022-07-30T14:40:20.171Z,24.88
2022-07-30T14:42:48.162Z,24.83
2022-07-30T14:45:15.119Z,25.08
2022-07-30T14:47:43.366Z,24.92
2022-07-30T14:50:10.326Z,24.96
2022-07-30T14:52:38.721Z,24.96
2022-07-30T14:55:06.827Z,24.90
2022-07-30T14:57:33.860Z,24.90
2022-07-30T15:00:01.034Z,24.60
2022-07-30T15:02:28.003Z,24.28
2022-07-30T15:04:56.193Z,23.92
2022-07-30T15:07:23.460Z,23.57
2022-07-30T15:09:50.237Z,23.57
2022-07-30T15:12:26.570Z,23.50
2022-07-30T15:14:54.116Z,23.70
2022-07-30T15:17:20.998Z,24.07
2022-07-30T15:19:50.575Z,24.63
2022-07-30T15:22:19.907Z,24.62
2022-07-30T15:24:46.880Z,24.76
2022-07-30T15:27:13.687Z,24.79
2022-07-30T15:29:40.528Z,25.31
2022-07-30T15:32:07.793Z,25.09
2022-07-30T15:34:34.733Z,25.26
2022-07-30T15:37:02.697Z,25.10
2022-07-30T15:39:33.131Z,24.50
2022-07-30T15:42:00.876Z,24.32
2022-07-30T15:44:28.121Z,23.86
2022-07-30T15:46:55.192Z,23.47
2022-07-30T15:49:22.244Z,23.32
2022-07-30T15:51:49.669Z,23.15
2022-07-30T15:54:22.904Z,23.14
2022-07-30T15:56:54.035Z,23.18
2022-07-30T15:59:27.867Z,22.90
2022-07-30T16:01:54.732Z,22.78
2022-07-30T16:04:21.503Z,22.65
2022-07-30T16:06:58.777Z,22.45
2022-07-30T16:09:26.761Z,22.31
2022-07-30T16:11:55.408Z,22.21
2022-07-30T16:14:22.626Z,22.16
2022-07-30T16:16:49.614Z,22.00
2022-07-30T16:19:16.578Z,21.98
2022-07-30T16:21:43.402Z,21.94
2022-07-30T16:24:10.261Z,21.97
2022-07-30T16:26:37.425Z,22.05
2022-07-30T16:29:07.012Z,21.97
2022-07-30T16:31:35.971Z,21.98
2022-07-30T16:34:02.898Z,21.94
2022-07-30T16:36:30.034Z,21.94
2022-07-30T16:38:57.070Z,21.90
2022-07-30T16:41:24.162Z,21.90
2022-07-30T16:43:51.096Z,21.75
2022-07-30T16:46:19.506Z,21.76
2022-07-30T16:48:46.489Z,21.74
2022-07-30T16:51:17.775Z,21.66
2022-07-30T16:53:44.667Z,21.70
2022-07-30T16:56:11.625Z,21.79
2022-07-30T16:58:41.266Z,21.90
2022-07-30T17:01:08.486Z,22.03
2022-07-30T17:03:37.089Z,22.04
2022-07-30T17:06:04.040Z,22.11
2022-07-30T17:08:30.902Z,22.30
2022-07-30T17:10:57.708Z,22.49
2022-07-30T17:13:25.037Z,22.51
2022-07-30T17:15:51.944Z,22.51
2022-07-30T17:18:18.973Z,22.70
2022-07-30T17:20:47.230Z,22.63
2022-07-30T17:23:14.137Z,22.88
2022-07-30T17:25:40.948Z,22.85
2022-07-30T17:28:07.801Z,22.67
2022-07-30T17:30:34.622Z,22.99
2022-07-30T17:33:01.488Z,23.29
2022-07-30T17:35:28.595Z,23.16
2022-07-30T17:37:57.040Z,23.18
2022-07-30T17:40:28.942Z,23.02
2022-07-30T17:43:04.896Z,22.72
2022-07-30T17:45:32.916Z,22.46
2022-07-30T17:48:01.631Z,22.23
2022-07-30T17:50:29.103Z,22.13
2022-07-30T17:52:57.321Z,21.98
2022-07-30T17:55:24.462Z,21.76
2022-07-30T17:57:51.346Z,21.57
2022-07-30T18:00:18.201Z,21.52
2022-07-30T18:02:47.977Z,21.39
2022-07-30T18:05:15.749Z,21.29
2022-07-30T18:07:43.616Z,21.25
2022-07-30T18:10:12.667Z,21.15
2022-07-30T18:12:49.030Z,21.08
2022-07-30T18:15:17.005Z,21.01
2022-07-30T18:17:43.900Z,20.94
2022-07-30T18:20:11.811Z,20.87
2022-07-30T18:22:40.415Z,20.74
2022-07-30T18:25:18.103Z,20.64
2022-07-30T18:27:47.317Z,20.58
2022-07-30T18:30:14.839Z,20.51
2022-07-30T18:32:41.991Z,20.45
2022-07-30T18:35:13.639Z,20.38
2022-07-30T18:37:42.123Z,20.20
2022-07-30T18:40:10.832Z,20.07
2022-07-30T18:42:37.687Z,19.96
2022-07-30T18:45:07.284Z,19.88
2022-07-30T18:47:34.755Z,19.87
2022-07-30T18:50:01.806Z,19.79
2022-07-30T18:52:28.695Z,19.79
2022-07-30T18:54:55.500Z,19.67
2022-07-30T18:57:22.406Z,19.58
2022-07-30T18:59:49.585Z,19.54
2022-07-30T19:02:18.051Z,19.43
2022-07-30T19:04:45.259Z,19.38
2022-07-30T19:07:12.139Z,19.30
2022-07-30T19:09:39.053Z,19.27
2022-07-30T19:12:06.674Z,19.22
2022-07-30T19:14:33.731Z,19.18
2022-07-30T19:17:00.592Z,19.14
2022-07-30T19:19:28.778Z,19.10
2022-07-30T19:21:56.078Z,19.03
2022-07-30T19:24:23.476Z,18.99
2022-07-30T19:26:54.733Z,19.03
2022-07-30T19:29:21.533Z,18.97
2022-07-30T19:31:49.842Z,18.86
2022-07-30T19:34:16.730Z,18.86
2022-07-30T19:36:45.195Z,18.84
2022-07-30T19:39:21.379Z,18.75
2022-07-30T19:41:50.870Z,18.70
2022-07-30T19:44:29.561Z,18.60
2022-07-30T19:46:58.479Z,18.47
2022-07-30T19:49:29.584Z,18.41
2022-07-30T19:52:09.749Z,18.36
2022-07-30T19:54:44.898Z,18.30
2022-07-30T19:57:11.787Z,18.25
2022-07-30T19:59:46.260Z,18.24
2022-07-30T20:02:25.718Z,18.15
2022-07-30T20:04:53.885Z,18.07
2022-07-30T20:07:22.979Z,17.97
2022-07-30T20:09:54.550Z,17.91
2022-07-30T20:12:21.471Z,17.85
2022-07-30T20:14:51.228Z,17.80
2022-07-30T20:17:18.680Z,17.70
2022-07-30T20:19:47.966Z,17.70
2022-07-30T20:22:15.946Z,17.65
2022-07-30T20:24:44.242Z,17.57
2022-07-30T20:27:38.530Z,17.48
2022-07-30T20:29:58.410Z,17.42
2022-07-30T20:32:25.998Z,17.37
2022-07-30T20:34:53.287Z,17.31
2022-07-30T20:37:21.673Z,17.24
2022-07-30T20:39:51.132Z,17.20
2022-07-30T20:42:18.473Z,17.17
2022-07-30T20:44:50.527Z,17.19
2022-07-30T20:47:38.440Z,17.18
2022-07-30T20:50:09.487Z,17.10
2022-07-30T20:52:37.043Z,17.18
2022-07-30T20:55:08.142Z,17.17
2022-07-30T20:57:56.302Z,17.15
2022-07-30T21:00:23.168Z,17.14
2022-07-30T21:02:51.406Z,17.21
2022-07-30T21:05:19.938Z,17.35
2022-07-30T21:07:47.291Z,17.46
2022-07-30T21:10:15.723Z,17.49
2022-07-30T21:12:44.709Z,17.54
2022-07-30T21:15:24.038Z,17.53
2022-07-30T21:17:51.372Z,17.59
2022-07-30T21:20:27.806Z,17.68
2022-07-30T21:22:55.181Z,17.72
2022-07-30T21:25:33.099Z,17.75
2022-07-30T21:28:00.810Z,17.82
2022-07-30T21:30:30.388Z,17.78
2022-07-30T21:32:57.409Z,17.73
2022-07-30T21:35:24.365Z,17.61
2022-07-30T21:37:58.466Z,17.59
2022-07-30T21:40:27.751Z,17.54
2022-07-30T21:42:56.247Z,17.57
2022-07-30T21:45:24.059Z,17.58
2022-07-30T21:48:10.758Z,17.65
2022-07-30T21:50:42.086Z,17.73
2022-07-30T21:53:10.045Z,17.78
2022-07-30T21:55:53.049Z,17.81
2022-07-30T21:58:26.002Z,17.85
2022-07-30T22:01:16.273Z,17.87
2022-07-30T22:04:03.874Z,17.95
2022-07-30T22:06:30.189Z,18.00
2022-07-30T22:08:57.496Z,18.03
2022-07-30T22:11:26.891Z,18.07
2022-07-30T22:14:12.673Z,18.03
2022-07-30T22:16:46.276Z,18.13
2022-07-30T22:19:14.390Z,18.16
2022-07-30T22:21:41.817Z,18.23
2022-07-30T22:24:08.829Z,18.25
2022-07-30T22:26:37.164Z,18.22
2022-07-30T22:29:04.084Z,18.25
2022-07-30T22:31:39.575Z,18.27
2022-07-30T22:34:11.247Z,18.33
2022-07-30T22:36:38.470Z,18.37
2022-07-30T22:39:08.931Z,18.48
2022-07-30T22:41:37.318Z,18.51
2022-07-30T22:44:05.403Z,18.54
2022-07-30T22:46:37.089Z,18.57
2022-07-30T22:49:04.829Z,18.53
2022-07-30T22:51:58.817Z,18.46
2022-07-30T22:54:18.591Z,18.46
2022-07-30T22:56:50.448Z,18.29
2022-07-30T22:59:17.374Z,18.42
2022-07-30T23:02:04.682Z,18.50
2022-07-30T23:04:32.963Z,18.56
2022-07-30T23:07:00.537Z,18.57
2022-07-30T23:09:32.301Z,18.55
2022-07-30T23:12:20.005Z,18.58
2022-07-30T23:14:47.449Z,18.51
2022-07-30T23:17:14.294Z,18.50
2022-07-30T23:19:41.179Z,18.45
2022-07-30T23:22:08.066Z,18.38
2022-07-30T23:24:34.913Z,18.27
2022-07-30T23:27:02.483Z,18.16
2022-07-30T23:29:30.821Z,18.08
2022-07-30T23:31:57.679Z,18.05
2022-07-30T23:34:24.551Z,17.97
2022-07-30T23:36:51.853Z,17.82
2022-07-30T23:39:21.714Z,17.77
2022-07-30T23:41:48.808Z,17.74
2022-07-30T23:44:15.791Z,17.73
2022-07-30T23:46:43.915Z,17.72
2022-07-30T23:49:11.236Z,17.69
2022-07-30T23:51:38.327Z,17.61
2022-07-30T23:54:06.412Z,17.53
2022-07-30T23:56:33.270Z,17.52
2022-07-30T23:59:00.078Z,17.48
